createdAt,value
2023-01-03T00:01:36.223Z,91.08
2023-01-03T00:04:05.471Z,91.79
2023-01-03T00:06:35.413Z,91.75
2023-01-03T00:09:09.702Z,91.79
2023-01-03T00:11:57.838Z,91.81
2023-01-03T00:14:28.700Z,92.39
2023-01-03T00:16:58.669Z,92.08
2023-01-03T00:19:29.334Z,92.43
2023-01-03T00:21:57.672Z,92.55
2023-01-03T00:24:27.625Z,92.61
2023-01-03T00:26:55.853Z,92.76
2023-01-03T00:29:24.308Z,92.72
2023-01-03T00:31:52.492Z,93.06
2023-01-03T00:34:21.693Z,93.15
2023-01-03T00:36:51.366Z,92.85
2023-01-03T00:39:20.277Z,93.55
2023-01-03T00:41:51.276Z,93.35
2023-01-03T00:44:21.891Z,93.59
2023-01-03T00:46:51.521Z,93.32
2023-01-03T00:49:20.055Z,93.45
2023-01-03T00:51:50.675Z,93.21
2023-01-03T00:54:19.054Z,93.41
2023-01-03T00:56:48.948Z,93.66
2023-01-03T00:59:20.060Z,94.50
2023-01-03T01:01:50.796Z,95.22
2023-01-03T01:04:21.446Z,95.14
2023-01-03T01:06:51.658Z,95.44
2023-01-03T01:09:21.782Z,95.91
2023-01-03T01:11:52.134Z,96.61
2023-01-03T01:14:25.446Z,96.40
2023-01-03T01:16:56.221Z,97.25
2023-01-03T01:19:27.768Z,98.37
2023-01-03T01:21:56.156Z,98.90
2023-01-03T01:24:25.309Z,99.40
2023-01-03T01:26:54.236Z,100.00
2023-01-03T01:29:24.132Z,100.00
2023-01-03T01:31:53.669Z,100.00
2023-01-03T01:34:22.232Z,100.00
2023-01-03T01:36:51.620Z,100.00
2023-01-03T01:39:22.543Z,100.00
2023-01-03T01:42:18.237Z,100.00
2023-01-03T01:44:55.939Z,100.00
2023-01-03T01:47:30.856Z,100.00
2023-01-03T01:50:04.745Z,100.00
2023-01-03T01:52:39.067Z,100.00
2023-01-03T01:55:13.115Z,100.00
2023-01-03T01:57:43.442Z,100.00
2023-01-03T02:00:14.851Z,100.00
2023-01-03T02:02:46.358Z,100.00
2023-01-03T02:05:18.107Z,100.00
2023-01-03T02:07:50.077Z,100.00
2023-01-03T02:10:20.204Z,100.00
2023-01-03T02:13:12.089Z,100.00
2023-01-03T02:16:12.046Z,99.71
2023-01-03T02:18:53.577Z,100.00
2023-01-03T02:21:52.490Z,100.00
2023-01-03T02:24:50.746Z,100.00
2023-01-03T02:27:55.939Z,100.00
2023-01-03T02:30:37.538Z,100.00
2023-01-03T02:33:17.097Z,100.00
2023-01-03T02:35:56.074Z,100.00
2023-01-03T02:38:30.165Z,100.00
2023-01-03T02:41:07.487Z,100.00
2023-01-03T02:43:43.151Z,100.00
2023-01-03T02:46:18.018Z,100.00
2023-01-03T02:48:53.437Z,99.22
2023-01-03T02:51:27.494Z,98.05
2023-01-03T02:54:00.164Z,96.46
2023-01-03T02:56:34.548Z,94.66
2023-01-03T02:59:11.255Z,94.90
2023-01-03T03:01:45.371Z,94.63
2023-01-03T03:04:16.027Z,94.16
2023-01-03T03:06:50.936Z,94.22
2023-01-03T03:09:19.432Z,93.53
2023-01-03T03:12:06.251Z,93.86
2023-01-03T03:14:38.347Z,93.63
2023-01-03T03:17:14.372Z,92.92
2023-01-03T03:20:06.013Z,91.82
2023-01-03T03:22:57.529Z,92.50
2023-01-03T03:25:30.147Z,92.13
2023-01-03T03:28:15.934Z,93.12
2023-01-03T03:34:39.151Z,92.27
2023-01-03T03:37:14.887Z,91.30
2023-01-03T03:40:00.887Z,89.50
2023-01-03T03:42:52.947Z,88.42
2023-01-03T03:45:26.712Z,88.61
2023-01-03T03:48:04.745Z,85.05
2023-01-03T03:50:37.888Z,84.13
2023-01-03T03:53:10.375Z,82.00
2023-01-03T03:55:43.727Z,81.79
2023-01-03T03:58:18.190Z,81.85
2023-01-03T04:00:49.707Z,82.60
2023-01-03T04:03:19.184Z,82.81
2023-01-03T04:05:54.113Z,82.31
2023-01-03T04:08:23.161Z,83.10
2023-01-03T04:10:51.712Z,83.28
2023-01-03T04:13:20.506Z,83.32
2023-01-03T04:15:48.694Z,83.23
2023-01-03T04:18:17.815Z,83.69
2023-01-03T04:20:46.215Z,84.02
2023-01-03T04:23:17.592Z,83.17
2023-01-03T04:25:47.193Z,83.14
2023-01-03T04:28:15.772Z,82.17
2023-01-03T04:30:44.513Z,81.86
2023-01-03T04:33:13.525Z,82.65
2023-01-03T04:35:42.303Z,83.15
2023-01-03T04:38:12.256Z,82.71
2023-01-03T04:40:42.873Z,83.04
2023-01-03T04:43:38.160Z,83.00
2023-01-03T04:46:07.076Z,82.75
2023-01-03T04:48:35.637Z,82.50
2023-01-03T04:51:04.374Z,82.29
2023-01-03T04:53:32.851Z,81.28
2023-01-03T04:56:03.394Z,81.87
2023-01-03T04:58:32.136Z,82.87
2023-01-03T05:01:05.527Z,83.15
2023-01-03T05:03:34.205Z,81.69
2023-01-03T05:06:05.146Z,82.73
2023-01-03T05:08:34.163Z,82.78
2023-01-03T05:11:04.587Z,83.12
2023-01-03T05:13:33.159Z,83.76
2023-01-03T05:16:06.690Z,84.51
2023-01-03T05:18:35.530Z,84.90
2023-01-03T05:21:26.545Z,84.81
2023-01-03T05:24:12.120Z,83.37
2023-01-03T05:26:45.580Z,83.79
2023-01-03T05:29:18.740Z,84.43
2023-01-03T05:31:47.414Z,83.15
2023-01-03T05:34:15.940Z,84.18
2023-01-03T05:36:45.138Z,84.35
2023-01-03T05:39:14.201Z,83.28
2023-01-03T05:42:03.323Z,83.29
2023-01-03T05:44:33.806Z,84.20
2023-01-03T05:47:03.042Z,84.77
2023-01-03T05:49:31.478Z,84.54
2023-01-03T05:51:59.747Z,83.67
2023-01-03T05:54:28.612Z,83.24
2023-01-03T05:56:58.217Z,82.33
2023-01-03T05:59:28.173Z,82.70
2023-01-03T06:01:56.433Z,83.34
2023-01-03T06:04:26.309Z,83.46
2023-01-03T06:06:54.500Z,83.92
2023-01-03T06:09:23.533Z,84.12
2023-01-03T06:11:54.128Z,83.67
2023-01-03T06:14:24.011Z,83.51
2023-01-03T06:17:09.540Z,83.88
2023-01-03T06:19:38.536Z,83.65
2023-01-03T06:22:10.801Z,83.77
2023-01-03T06:24:40.964Z,84.08
2023-01-03T06:27:09.108Z,84.78
2023-01-03T06:29:41.447Z,84.77
2023-01-03T06:32:10.294Z,85.20
2023-01-03T06:34:39.650Z,85.40
2023-01-03T06:37:08.556Z,85.50
2023-01-03T06:39:39.060Z,85.48
2023-01-03T06:42:28.890Z,85.92
2023-01-03T06:45:17.053Z,86.18
2023-01-03T06:48:02.485Z,85.70
2023-01-03T06:50:48.406Z,85.57
2023-01-03T06:53:18.439Z,86.25
2023-01-03T06:55:54.542Z,85.86
2023-01-03T06:58:25.195Z,86.37
2023-01-03T07:00:58.871Z,86.46
2023-01-03T07:03:27.124Z,86.40
2023-01-03T07:05:55.621Z,86.18
2023-01-03T07:08:23.800Z,85.03
2023-01-03T07:10:52.166Z,84.33
2023-01-03T07:13:38.432Z,83.54
2023-01-03T07:16:08.693Z,84.89
2023-01-03T07:18:36.868Z,83.86
2023-01-03T07:21:08.040Z,84.51
2023-01-03T07:23:36.225Z,84.56
2023-01-03T07:26:06.446Z,85.04
2023-01-03T07:28:34.625Z,85.01
2023-01-03T07:31:07.409Z,84.80
2023-01-03T07:33:39.222Z,84.88
2023-01-03T07:36:12.031Z,84.31
2023-01-03T07:38:41.446Z,82.18
2023-01-03T07:41:11.724Z,82.23
2023-01-03T07:43:39.803Z,82.10
2023-01-03T07:46:12.383Z,81.74
2023-01-03T07:48:44.167Z,81.06
2023-01-03T07:51:14.175Z,80.86
2023-01-03T07:53:43.421Z,80.09
2023-01-03T07:56:16.005Z,80.24
2023-01-03T07:58:45.857Z,79.85
2023-01-03T08:01:16.447Z,79.40
2023-01-03T08:03:47.456Z,79.99
2023-01-03T08:06:19.743Z,80.78
2023-01-03T08:09:09.121Z,81.53
2023-01-03T08:11:55.012Z,81.95
2023-01-03T08:14:26.439Z,81.56
2023-01-03T08:16:55.808Z,81.70
2023-01-03T08:19:27.819Z,82.23
2023-01-03T08:21:57.732Z,82.37
2023-01-03T08:24:25.919Z,83.15
2023-01-03T08:26:54.568Z,83.12
2023-01-03T08:29:22.697Z,83.68
2023-01-03T08:31:55.987Z,83.56
2023-01-03T08:34:30.060Z,83.68
2023-01-03T08:37:03.619Z,82.92
2023-01-03T08:39:38.480Z,82.61
2023-01-03T08:42:10.021Z,82.66
2023-01-03T08:44:40.037Z,82.52
2023-01-03T08:47:10.469Z,83.32
2023-01-03T08:49:41.060Z,83.58
2023-01-03T08:52:09.518Z,83.26
2023-01-03T08:54:40.646Z,83.34
2023-01-03T08:57:09.055Z,83.22
2023-01-03T08:59:37.252Z,83.85
2023-01-03T09:02:05.923Z,84.25
2023-01-03T09:04:36.689Z,83.92
2023-01-03T09:07:07.139Z,83.78
2023-01-03T09:09:35.301Z,83.67
2023-01-03T09:12:03.872Z,83.50
2023-01-03T09:14:32.615Z,83.29
2023-01-03T09:17:01.226Z,82.69
2023-01-03T09:19:31.553Z,82.47
2023-01-03T09:22:00.916Z,82.42
2023-01-03T09:24:30.477Z,82.66
2023-01-03T09:27:00.161Z,82.68
2023-01-03T09:29:28.063Z,82.65
2023-01-03T09:31:57.151Z,82.78
2023-01-03T09:34:26.567Z,81.77
2023-01-03T09:36:55.069Z,82.10
2023-01-03T09:39:23.409Z,81.63
2023-01-03T09:42:07.680Z,80.82
2023-01-03T09:44:36.186Z,78.78
2023-01-03T09:47:08.753Z,78.89
2023-01-03T09:49:57.712Z,79.23
2023-01-03T09:52:51.757Z,81.54
2023-01-03T09:55:44.657Z,82.22
2023-01-03T09:58:34.858Z,83.37
2023-01-03T10:01:37.425Z,84.88
2023-01-03T10:04:21.144Z,85.12
2023-01-03T10:06:57.540Z,87.20
2023-01-03T10:09:35.308Z,87.53
2023-01-03T10:12:13.799Z,87.98
2023-01-03T10:14:57.505Z,88.26
2023-01-03T10:17:34.521Z,88.44
2023-01-03T10:20:13.630Z,89.03
2023-01-03T10:22:42.289Z,89.43
2023-01-03T10:25:13.524Z,89.92
2023-01-03T10:27:48.202Z,90.44
2023-01-03T10:30:21.228Z,90.35
2023-01-03T10:33:22.018Z,89.60
2023-01-03T10:35:52.050Z,89.61
2023-01-03T10:38:22.356Z,90.29
2023-01-03T10:40:54.662Z,89.81
2023-01-03T10:43:29.609Z,89.03
2023-01-03T10:46:01.724Z,87.91
2023-01-03T10:51:41.931Z,87.15
2023-01-03T10:54:21.729Z,86.64
2023-01-03T10:56:51.262Z,85.86
2023-01-03T10:59:24.935Z,85.81
2023-01-03T11:02:04.315Z,86.19
2023-01-03T11:04:33.975Z,86.08
2023-01-03T11:07:07.608Z,86.34
2023-01-03T11:09:47.041Z,86.72
2023-01-03T11:12:25.475Z,87.86
2023-01-03T11:14:56.329Z,88.03
2023-01-03T11:17:28.247Z,87.30
2023-01-03T11:19:57.977Z,87.15
2023-01-03T11:22:38.059Z,86.57
2023-01-03T11:25:30.149Z,87.55
2023-01-03T11:28:32.934Z,88.77
2023-01-03T11:31:08.550Z,89.03
2023-01-03T11:33:54.580Z,89.97
2023-01-03T11:36:34.276Z,91.48
2023-01-03T11:39:19.081Z,92.87
2023-01-03T11:42:03.457Z,93.86
2023-01-03T11:45:10.228Z,95.20
2023-01-03T11:47:43.440Z,96.63
2023-01-03T11:50:30.071Z,97.76
2023-01-03T11:53:04.623Z,99.78
2023-01-03T11:55:52.931Z,100.00
2023-01-03T11:58:43.502Z,100.00
2023-01-03T12:01:23.481Z,100.00
2023-01-03T12:04:07.575Z,100.00
2023-01-03T12:06:43.214Z,99.73
2023-01-03T12:09:23.477Z,98.58
2023-01-03T12:12:13.895Z,97.46
2023-01-03T12:14:47.616Z,98.08
2023-01-03T12:17:22.670Z,96.10
2023-01-03T12:19:56.649Z,94.67
2023-01-03T12:22:34.767Z,94.28
2023-01-03T12:25:10.307Z,94.69
2023-01-03T12:27:46.188Z,93.97
2023-01-03T12:30:29.037Z,94.01
2023-01-03T12:33:04.016Z,93.75
2023-01-03T12:35:39.850Z,93.66
2023-01-03T12:38:12.390Z,92.12
2023-01-03T12:40:52.215Z,93.17
2023-01-03T12:43:29.169Z,92.45
2023-01-03T12:46:12.408Z,91.27
2023-01-03T12:48:56.213Z,90.62
2023-01-03T12:51:28.694Z,90.29
2023-01-03T12:54:12.789Z,90.78
2023-01-03T12:57:12.723Z,90.95
2023-01-03T13:00:05.200Z,90.63
2023-01-03T13:02:45.655Z,90.08
2023-01-03T13:05:20.681Z,90.39
2023-01-03T13:07:55.371Z,90.31
2023-01-03T13:10:29.945Z,90.86
2023-01-03T13:12:59.944Z,91.11
2023-01-03T13:15:36.509Z,90.43
2023-01-03T13:18:30.576Z,89.93
2023-01-03T13:21:00.473Z,89.33
2023-01-03T13:23:37.383Z,90.20
2023-01-03T13:26:23.035Z,90.22
2023-01-03T13:28:52.860Z,90.17
2023-01-03T13:32:04.248Z,90.31
2023-01-03T13:34:41.470Z,90.12
2023-01-03T13:37:22.423Z,90.47
2023-01-03T13:40:06.348Z,90.64
2023-01-03T13:42:39.890Z,90.88
2023-01-03T13:45:57.798Z,91.81
2023-01-03T13:48:32.811Z,92.11
2023-01-03T13:51:51.781Z,92.77
2023-01-03T13:54:56.295Z,92.88
2023-01-03T13:57:37.441Z,93.33
2023-01-03T14:00:18.880Z,94.75
2023-01-03T14:03:28.927Z,96.67
2023-01-03T14:06:36.497Z,97.59
2023-01-03T14:09:28.265Z,98.38
2023-01-03T14:12:19.579Z,99.33
2023-01-03T14:14:55.380Z,100.00
2023-01-03T14:17:30.367Z,100.00
2023-01-03T14:20:08.633Z,100.00
2023-01-03T14:22:44.241Z,100.00
2023-01-03T14:25:33.084Z,100.00
2023-01-03T14:28:02.786Z,100.00
2023-01-03T14:30:34.797Z,100.00
2023-01-03T14:33:05.030Z,100.00
2023-01-03T14:35:35.933Z,100.00
2023-01-03T14:38:07.349Z,100.00
2023-01-03T14:40:35.937Z,100.00
2023-01-03T14:43:07.096Z,100.00
2023-01-03T14:45:37.077Z,100.00
2023-01-03T14:48:07.799Z,100.00
2023-01-03T14:50:35.942Z,100.00
2023-01-03T14:53:07.231Z,100.00
2023-01-03T14:55:37.090Z,100.00
2023-01-03T14:58:26.141Z,100.00
2023-01-03T15:00:56.006Z,100.00
2023-01-03T15:03:26.963Z,100.00
2023-01-03T15:05:59.901Z,100.00
2023-01-03T15:08:31.607Z,100.00
2023-01-03T15:11:04.187Z,100.00
2023-01-03T15:13:37.060Z,100.00
2023-01-03T15:16:08.006Z,100.00
2023-01-03T15:18:40.935Z,100.00
2023-01-03T15:21:09.153Z,100.00
2023-01-03T15:23:40.882Z,100.00
2023-01-03T15:26:21.174Z,100.00
2023-01-03T15:28:55.381Z,100.00
2023-01-03T15:31:31.325Z,100.00
2023-01-03T15:34:03.179Z,100.00
2023-01-03T15:36:34.008Z,100.00
2023-01-03T15:39:03.295Z,100.00
2023-01-03T15:42:19.551Z,100.00
2023-01-03T15:44:43.483Z,100.00
2023-01-03T15:47:11.886Z,100.00
2023-01-03T15:49:47.817Z,100.00
2023-01-03T15:52:17.050Z,100.00
2023-01-03T15:54:46.525Z,100.00
2023-01-03T15:57:20.746Z,100.00
2023-01-03T15:59:54.084Z,100.00
2023-01-03T16:02:26.126Z,100.00
2023-01-03T16:04:56.598Z,100.00
2023-01-03T16:07:26.268Z,100.00
2023-01-03T16:09:55.607Z,100.00
2023-01-03T16:12:34.532Z,100.00
2023-01-03T16:15:04.375Z,100.00
2023-01-03T16:17:33.641Z,100.00
2023-01-03T16:20:04.466Z,100.00
2023-01-03T16:22:34.823Z,100.00
2023-01-03T16:25:05.672Z,100.00
2023-01-03T16:27:34.143Z,100.00
2023-01-03T16:30:03.343Z,100.00
2023-01-03T16:32:32.065Z,100.00
2023-01-03T16:35:04.982Z,100.00
2023-01-03T16:37:33.083Z,100.00
2023-01-03T16:40:02.322Z,100.00
2023-01-03T16:42:30.618Z,100.00
2023-01-03T16:45:00.190Z,100.00
2023-01-03T16:47:32.427Z,100.00
2023-01-03T16:50:07.104Z,100.00
2023-01-03T16:52:39.095Z,100.00
2023-01-03T16:55:17.460Z,100.00
2023-01-03T16:57:51.900Z,100.00
2023-01-03T17:00:27.540Z,100.00
2023-01-03T17:02:59.676Z,100.00
2023-01-03T17:05:37.260Z,100.00
2023-01-03T17:08:07.795Z,100.00
2023-01-03T17:10:42.890Z,100.00
2023-01-03T17:13:31.350Z,100.00
2023-01-03T17:16:02.086Z,100.00
2023-01-03T17:18:32.271Z,100.00
2023-01-03T17:21:07.151Z,100.00
2023-01-03T17:23:40.740Z,100.00
2023-01-03T17:26:15.795Z,100.00
2023-01-03T17:28:44.550Z,100.00
2023-01-03T17:31:18.176Z,100.00
2023-01-03T17:33:46.621Z,100.00
2023-01-03T17:36:20.127Z,100.00
2023-01-03T17:38:48.203Z,100.00
2023-01-03T17:41:20.823Z,100.00
2023-01-03T17:43:49.470Z,100.00
2023-01-03T17:46:39.777Z,100.00
2023-01-03T17:49:27.463Z,100.00
2023-01-03T17:52:00.330Z,100.00
2023-01-03T17:54:32.481Z,100.00
2023-01-03T17:57:02.166Z,100.00
2023-01-03T17:59:30.065Z,100.00
2023-01-03T18:01:59.957Z,100.00
2023-01-03T18:04:57.724Z,100.00
2023-01-03T18:07:24.364Z,100.00
2023-01-03T18:09:54.695Z,100.00
2023-01-03T18:12:26.710Z,100.00
2023-01-03T18:14:55.799Z,100.00
2023-01-03T18:17:29.618Z,100.00
2023-01-03T18:20:00.024Z,100.00
2023-01-03T18:22:36.775Z,100.00
2023-01-03T18:25:08.337Z,100.00
2023-01-03T18:27:36.948Z,100.00
2023-01-03T18:30:05.898Z,100.00
2023-01-03T18:32:36.421Z,100.00
2023-01-03T18:35:05.259Z,100.00
2023-01-03T18:37:39.348Z,100.00
2023-01-03T18:40:09.565Z,100.00
2023-01-03T18:42:56.305Z,100.00
2023-01-03T18:45:24.463Z,100.00
2023-01-03T18:47:52.832Z,100.00
2023-01-03T18:50:21.513Z,100.00
2023-01-03T18:52:52.580Z,100.00
2023-01-03T18:55:25.874Z,100.00
2023-01-03T18:57:54.876Z,100.00
2023-01-03T19:00:28.480Z,100.00
2023-01-03T19:02:57.151Z,100.00
2023-01-03T19:05:25.890Z,100.00
2023-01-03T19:07:58.177Z,100.00
2023-01-03T19:10:27.675Z,100.00
2023-01-03T19:12:58.957Z,100.00
2023-01-03T19:15:30.012Z,100.00
2023-01-03T19:18:01.780Z,100.00
2023-01-03T19:20:30.331Z,100.00
2023-01-03T19:23:01.728Z,100.00
2023-01-03T19:25:31.675Z,100.00
2023-01-03T19:28:02.861Z,100.00
2023-01-03T19:30:37.705Z,100.00
2023-01-03T19:33:07.886Z,100.00
2023-01-03T19:35:36.293Z,100.00
2023-01-03T19:38:06.397Z,100.00
2023-01-03T19:40:35.601Z,100.00
2023-01-03T19:43:04.984Z,100.00
2023-01-03T19:45:35.667Z,100.00
2023-01-03T19:48:05.987Z,100.00
2023-01-03T19:50:36.464Z,100.00
2023-01-03T19:53:06.893Z,100.00
2023-01-03T19:55:43.326Z,100.00
2023-01-03T19:58:18.680Z,100.00
2023-01-03T20:00:50.351Z,100.00
2023-01-03T20:03:30.182Z,100.00
2023-01-03T20:06:00.962Z,100.00
2023-01-03T20:08:31.594Z,100.00
2023-01-03T20:11:00.445Z,100.00
2023-01-03T20:13:29.244Z,100.00
2023-01-03T20:16:02.374Z,100.00
2023-01-03T20:18:34.325Z,100.00
2023-01-03T20:21:07.958Z,100.00
2023-01-03T20:23:41.014Z,100.00
2023-01-03T20:26:21.379Z,100.00
2023-01-03T20:28:50.625Z,100.00
2023-01-03T20:31:20.825Z,100.00
2023-01-03T20:33:50.161Z,100.00
2023-01-03T20:36:23.446Z,100.00
2023-01-03T20:38:56.288Z,100.00
2023-01-03T20:41:36.865Z,100.00
2023-01-03T20:44:08.803Z,100.00
2023-01-03T20:46:43.000Z,100.00
2023-01-03T20:49:16.355Z,100.00
2023-01-03T20:51:45.549Z,100.00
2023-01-03T20:54:17.487Z,100.00
2023-01-03T20:57:15.442Z,100.00
2023-01-03T20:59:44.286Z,100.00
2023-01-03T21:02:13.251Z,100.00
2023-01-03T21:04:41.773Z,100.00
2023-01-03T21:07:28.048Z,100.00
2023-01-03T21:09:59.466Z,100.00
2023-01-03T21:12:31.040Z,100.00
2023-01-03T21:15:03.842Z,100.00
2023-01-03T21:17:33.068Z,100.00
2023-01-03T21:20:01.424Z,100.00
2023-01-03T21:22:29.642Z,100.00
2023-01-03T21:25:02.618Z,100.00
2023-01-03T21:27:31.054Z,100.00
2023-01-03T21:30:01.382Z,100.00
2023-01-03T21:32:29.607Z,100.00
2023-01-03T21:34:58.398Z,100.00
2023-01-03T21:37:27.072Z,100.00
2023-01-03T21:39:55.507Z,100.00
2023-01-03T21:42:44.617Z,100.00
2023-01-03T21:45:14.626Z,100.00
2023-01-03T21:47:42.737Z,100.00
2023-01-03T21:50:15.872Z,100.00
2023-01-03T21:52:44.257Z,100.00
2023-01-03T21:55:13.255Z,100.00
2023-01-03T21:57:43.773Z,100.00
2023-01-03T22:00:14.015Z,100.00
2023-01-03T22:03:01.035Z,100.00
2023-01-03T22:05:30.842Z,100.00
2023-01-03T22:07:59.730Z,100.00
2023-01-03T22:10:30.359Z,100.00
2023-01-03T22:13:04.328Z,100.00
2023-01-03T22:15:35.767Z,100.00
2023-01-03T22:18:06.035Z,100.00
2023-01-03T22:20:38.522Z,100.00
2023-01-03T22:23:08.624Z,100.00
2023-01-03T22:25:37.228Z,100.00
2023-01-03T22:28:06.956Z,100.00
2023-01-03T22:30:35.896Z,100.00
2023-01-03T22:33:04.128Z,100.00
2023-01-03T22:35:34.644Z,100.00
2023-01-03T22:38:02.777Z,100.00
2023-01-03T22:40:31.242Z,100.00
2023-01-03T22:42:59.358Z,100.00
2023-01-03T22:45:31.099Z,100.00
2023-01-03T22:48:00.759Z,100.00
2023-01-03T22:50:29.109Z,100.00
2023-01-03T22:52:57.181Z,100.00
2023-01-03T22:55:30.090Z,100.00
2023-01-03T22:58:00.692Z,100.00
2023-01-03T23:00:30.679Z,100.00
2023-01-03T23:02:58.904Z,100.00
2023-01-03T23:05:27.460Z,100.00
2023-01-03T23:07:55.869Z,100.00
2023-01-03T23:10:24.311Z,100.00
2023-01-03T23:13:01.330Z,100.00
2023-01-03T23:15:32.851Z,100.00
2023-01-03T23:18:02.092Z,100.00
2023-01-03T23:20:32.950Z,100.00
2023-01-03T23:23:06.468Z,100.00
2023-01-03T23:25:37.002Z,100.00
2023-01-03T23:28:06.007Z,100.00
2023-01-03T23:30:36.761Z,100.00
2023-01-03T23:33:05.340Z,100.00
2023-01-03T23:35:34.346Z,100.00
2023-01-03T23:38:03.162Z,100.00
2023-01-03T23:40:32.043Z,100.00
2023-01-03T23:43:00.154Z,100.00
2023-01-03T23:45:29.220Z,100.00
2023-01-03T23:48:00.387Z,100.00
2023-01-03T23:50:28.928Z,100.00
2023-01-03T23:52:57.146Z,100.00
2023-01-03T23:55:25.587Z,100.00
2023-01-03T23:58:20.150Z,100.00
